createdAt,value
2022-07-27T00:00:48.005Z,17.32
2022-07-27T00:03:14.707Z,17.30
2022-07-27T00:05:42.027Z,17.33
2022-07-27T00:08:08.763Z,17.30
2022-07-27T00:10:36.666Z,17.29
2022-07-27T00:13:04.556Z,17.30
2022-07-27T00:15:31.325Z,17.33
2022-07-27T00:18:01.185Z,17.29
2022-07-27T00:20:29.176Z,17.23
2022-07-27T00:22:56.387Z,17.28
2022-07-27T00:25:23.658Z,17.21
2022-07-27T00:27:50.592Z,17.21
2022-07-27T00:30:17.424Z,17.25
2022-07-27T00:32:44.267Z,17.30
2022-07-27T00:35:11.967Z,17.30
2022-07-27T00:37:38.877Z,17.28
2022-07-27T00:40:06.822Z,17.33
2022-07-27T00:42:34.065Z,17.29
2022-07-27T00:45:02.401Z,17.22
2022-07-27T00:47:29.149Z,17.28
2022-07-27T00:49:55.894Z,17.36
2022-07-27T00:52:23.109Z,17.35
2022-07-27T00:54:50.107Z,17.26
2022-07-27T00:57:17.247Z,17.24
2022-07-27T00:59:44.072Z,17.23
2022-07-27T01:02:12.151Z,17.21
2022-07-27T01:04:39.451Z,17.18
2022-07-27T01:07:07.274Z,17.12
2022-07-27T01:09:53.771Z,17.12
2022-07-27T01:12:21.445Z,17.11
2022-07-27T01:14:49.784Z,17.13
2022-07-27T01:17:17.603Z,17.13
2022-07-27T01:19:44.810Z,17.12
2022-07-27T01:22:12.444Z,17.07
2022-07-27T01:24:39.602Z,17.11
2022-07-27T01:27:07.147Z,17.10
2022-07-27T01:29:35.234Z,17.13
2022-07-27T01:32:02.641Z,17.11
2022-07-27T01:34:29.308Z,17.08
2022-07-27T01:36:55.929Z,17.04
2022-07-27T01:39:22.542Z,17.04
2022-07-27T01:41:49.085Z,16.97
2022-07-27T01:44:15.898Z,16.91
2022-07-27T01:46:42.485Z,16.90
2022-07-27T01:49:09.649Z,16.88
2022-07-27T01:51:36.454Z,16.86
2022-07-27T01:54:03.256Z,16.80
2022-07-27T01:56:29.834Z,16.87
2022-07-27T01:58:56.507Z,16.93
2022-07-27T02:01:23.213Z,16.97
2022-07-27T02:03:49.718Z,17.01
2022-07-27T02:06:16.213Z,17.01
2022-07-27T02:08:42.784Z,16.94
2022-07-27T02:11:28.276Z,16.87
2022-07-27T02:13:54.828Z,16.79
2022-07-27T02:16:21.488Z,16.67
2022-07-27T02:18:51.029Z,16.65
2022-07-27T02:21:17.621Z,16.58
2022-07-27T02:23:46.935Z,16.55
2022-07-27T02:26:13.570Z,16.48
2022-07-27T02:28:40.229Z,16.32
2022-07-27T02:31:06.893Z,16.39
2022-07-27T02:33:34.872Z,16.41
2022-07-27T02:36:01.774Z,16.23
2022-07-27T02:38:28.544Z,16.10
2022-07-27T02:40:55.018Z,16.04
2022-07-27T02:43:21.657Z,15.98
2022-07-27T02:45:49.785Z,15.97
2022-07-27T02:48:16.464Z,16.02
2022-07-27T02:50:43.070Z,16.05
2022-07-27T02:53:09.823Z,15.95
2022-07-27T02:55:36.307Z,15.93
2022-07-27T02:58:02.855Z,15.94
2022-07-27T03:00:29.609Z,15.91
2022-07-27T03:02:56.284Z,15.88
2022-07-27T03:05:22.935Z,15.81
2022-07-27T03:07:49.598Z,15.84
2022-07-27T03:10:16.197Z,15.89
2022-07-27T03:12:44.225Z,15.88
2022-07-27T03:15:11.351Z,15.82
2022-07-27T03:17:38.043Z,15.79
2022-07-27T03:20:05.310Z,15.76
2022-07-27T03:22:35.415Z,15.73
2022-07-27T03:25:02.053Z,15.76
2022-07-27T03:27:29.313Z,15.73
2022-07-27T03:29:56.666Z,15.71
2022-07-27T03:32:23.447Z,15.72
2022-07-27T03:34:50.071Z,15.75
2022-07-27T03:37:17.335Z,15.67
2022-07-27T03:39:44.095Z,15.66
2022-07-27T03:42:12.610Z,15.76
2022-07-27T03:44:39.399Z,15.66
2022-07-27T03:47:06.121Z,15.68
2022-07-27T03:49:32.786Z,15.75
2022-07-27T03:51:59.500Z,15.74
2022-07-27T03:54:26.351Z,15.66
2022-07-27T03:56:53.224Z,15.68
2022-07-27T03:59:19.943Z,15.58
2022-07-27T04:01:47.407Z,15.59
2022-07-27T04:04:14.318Z,15.45
2022-07-27T04:06:40.915Z,15.47
2022-07-27T04:09:08.731Z,15.47
2022-07-27T04:11:36.976Z,15.46
2022-07-27T04:14:05.322Z,15.42
2022-07-27T04:16:36.016Z,15.48
2022-07-27T04:19:03.178Z,15.60
2022-07-27T04:21:33.698Z,15.65
2022-07-27T04:24:03.893Z,15.76
2022-07-27T04:26:31.021Z,15.79
2022-07-27T04:28:57.726Z,15.69
2022-07-27T04:31:24.642Z,15.54
2022-07-27T04:33:51.570Z,15.56
2022-07-27T04:36:18.402Z,15.45
2022-07-27T04:38:45.053Z,15.45
2022-07-27T04:41:11.979Z,15.56
2022-07-27T04:43:38.986Z,15.62
2022-07-27T04:46:06.015Z,15.59
2022-07-27T04:48:34.238Z,15.63
2022-07-27T04:51:01.899Z,15.68
2022-07-27T04:53:28.493Z,15.74
2022-07-27T04:55:55.097Z,15.81
2022-07-27T04:58:21.637Z,15.89
2022-07-27T05:00:48.463Z,15.86
2022-07-27T05:03:15.399Z,15.93
2022-07-27T05:05:49.748Z,16.01
2022-07-27T05:08:17.476Z,15.94
2022-07-27T05:10:44.166Z,15.94
2022-07-27T05:13:10.841Z,15.88
2022-07-27T05:15:55.205Z,16.01
2022-07-27T05:18:23.158Z,16.05
2022-07-27T05:20:50.567Z,16.13
2022-07-27T05:23:17.780Z,16.09
2022-07-27T05:25:44.464Z,16.03
2022-07-27T05:28:14.606Z,16.08
2022-07-27T05:30:41.294Z,16.17
2022-07-27T05:33:08.042Z,16.19
2022-07-27T05:35:34.974Z,16.20
2022-07-27T05:38:01.591Z,16.19
2022-07-27T05:40:28.430Z,16.20
2022-07-27T05:42:55.602Z,16.27
2022-07-27T05:45:22.717Z,16.25
2022-07-27T05:47:49.518Z,16.25
2022-07-27T05:50:18.093Z,16.30
2022-07-27T05:52:45.869Z,16.32
2022-07-27T05:55:12.801Z,16.29
2022-07-27T05:57:41.339Z,16.26
2022-07-27T06:00:09.115Z,16.34
2022-07-27T06:02:36.308Z,16.28
2022-07-27T06:05:03.216Z,16.25
2022-07-27T06:07:49.418Z,16.19
2022-07-27T06:10:17.187Z,16.26
2022-07-27T06:12:45.150Z,16.42
2022-07-27T06:15:13.516Z,16.54
2022-07-27T06:17:40.280Z,16.47
2022-07-27T06:20:08.264Z,16.56
2022-07-27T06:22:52.003Z,16.56
2022-07-27T06:25:21.651Z,16.79
2022-07-27T06:27:48.917Z,16.77
2022-07-27T06:30:17.605Z,16.85
2022-07-27T06:32:44.964Z,16.92
2022-07-27T06:35:13.838Z,17.05
2022-07-27T06:37:44.256Z,17.11
2022-07-27T06:40:13.361Z,17.09
2022-07-27T06:42:41.172Z,17.12
2022-07-27T06:45:09.421Z,17.09
2022-07-27T06:47:49.896Z,17.03
2022-07-27T06:50:20.599Z,16.94
2022-07-27T06:52:48.657Z,16.80
2022-07-27T06:55:15.851Z,16.92
2022-07-27T06:57:43.220Z,17.02
2022-07-27T07:00:10.903Z,16.96
2022-07-27T07:02:37.863Z,17.12
2022-07-27T07:05:04.798Z,17.26
2022-07-27T07:07:31.948Z,17.35
2022-07-27T07:09:58.744Z,17.42
2022-07-27T07:12:25.839Z,17.74
2022-07-27T07:14:52.811Z,17.91
2022-07-27T07:17:20.063Z,18.03
2022-07-27T07:19:46.828Z,18.14
2022-07-27T07:22:13.663Z,18.23
2022-07-27T07:24:40.308Z,18.37
2022-07-27T07:27:07.063Z,18.39
2022-07-27T07:29:33.710Z,18.52
2022-07-27T07:32:00.406Z,18.48
2022-07-27T07:34:27.583Z,18.50
2022-07-27T07:36:54.131Z,18.51
2022-07-27T07:39:20.773Z,18.79
2022-07-27T07:41:48.369Z,18.83
2022-07-27T07:44:14.903Z,19.04
2022-07-27T07:46:43.971Z,19.26
2022-07-27T07:49:13.853Z,19.30
2022-07-27T07:51:40.786Z,19.44
2022-07-27T07:54:07.430Z,19.45
2022-07-27T07:56:34.014Z,19.52
2022-07-27T07:59:01.469Z,19.45
2022-07-27T08:01:28.336Z,19.48
2022-07-27T08:03:55.376Z,19.53
2022-07-27T08:06:22.347Z,19.48
2022-07-27T08:08:49.128Z,19.66
2022-07-27T08:11:16.009Z,19.38
2022-07-27T08:13:42.826Z,19.22
2022-07-27T08:16:09.487Z,19.69
2022-07-27T08:18:36.130Z,19.62
2022-07-27T08:21:02.785Z,19.74
2022-07-27T08:23:31.937Z,19.65
2022-07-27T08:26:00.083Z,19.59
2022-07-27T08:28:34.796Z,19.45
2022-07-27T08:31:14.801Z,19.58
2022-07-27T08:33:45.478Z,19.38
2022-07-27T08:36:12.086Z,19.29
2022-07-27T08:38:38.880Z,19.58
2022-07-27T08:41:07.416Z,19.66
2022-07-27T08:43:34.219Z,19.82
2022-07-27T08:46:01.509Z,19.85
2022-07-27T08:48:31.021Z,20.02
2022-07-27T08:50:57.972Z,20.20
2022-07-27T08:53:25.434Z,19.98
2022-07-27T08:55:52.523Z,20.02
2022-07-27T08:58:19.348Z,19.91
2022-07-27T09:00:48.526Z,19.69
2022-07-27T09:03:20.058Z,19.77
2022-07-27T09:05:53.029Z,19.84
2022-07-27T09:08:25.054Z,19.96
2022-07-27T09:10:54.717Z,20.36
2022-07-27T09:13:28.477Z,20.48
2022-07-27T09:16:23.018Z,20.75
2022-07-27T09:18:59.680Z,20.69
2022-07-27T09:21:26.378Z,21.38
2022-07-27T09:24:18.021Z,21.69
2022-07-27T09:27:02.137Z,21.84
2022-07-27T09:29:34.474Z,22.01
2022-07-27T09:32:01.173Z,21.86
2022-07-27T09:34:31.029Z,21.76
2022-07-27T09:36:58.880Z,21.38
2022-07-27T09:39:27.749Z,21.42
2022-07-27T09:41:57.038Z,21.55
2022-07-27T09:44:42.535Z,21.26
2022-07-27T09:47:30.914Z,21.22
2022-07-27T09:50:17.532Z,21.10
2022-07-27T09:52:44.960Z,20.88
2022-07-27T09:55:11.921Z,20.89
2022-07-27T09:57:56.215Z,20.92
2022-07-27T10:00:23.500Z,21.29
2022-07-27T10:02:53.402Z,21.67
2022-07-27T10:05:22.923Z,21.44
2022-07-27T10:07:51.814Z,21.21
2022-07-27T10:10:19.081Z,21.04
2022-07-27T10:12:51.945Z,20.75
2022-07-27T10:15:21.411Z,20.69
2022-07-27T10:17:53.518Z,20.84
2022-07-27T10:20:20.335Z,20.99
2022-07-27T10:22:52.792Z,21.26
2022-07-27T10:25:20.616Z,21.42
2022-07-27T10:27:49.429Z,21.34
2022-07-27T10:30:24.291Z,21.42
2022-07-27T10:32:54.577Z,20.98
2022-07-27T10:35:32.682Z,21.19
2022-07-27T10:38:11.129Z,21.28
2022-07-27T10:40:39.181Z,21.23
2022-07-27T10:43:18.395Z,21.44
2022-07-27T10:46:01.583Z,21.36
2022-07-27T10:48:37.750Z,21.61
2022-07-27T10:51:06.716Z,21.76
2022-07-27T10:54:10.808Z,21.76
2022-07-27T10:56:47.401Z,21.68
2022-07-27T10:59:14.142Z,21.87
2022-07-27T11:01:57.629Z,21.98
2022-07-27T11:04:25.226Z,21.96
2022-07-27T11:07:23.968Z,21.93
2022-07-27T11:10:07.632Z,21.58
2022-07-27T11:12:36.738Z,21.77
2022-07-27T11:15:04.145Z,22.32
2022-07-27T11:20:23.213Z,24.66
2022-07-27T11:25:36.475Z,25.42
2022-07-27T11:28:07.631Z,24.67
2022-07-27T11:30:34.487Z,24.50
2022-07-27T11:33:04.934Z,24.39
2022-07-27T11:35:34.459Z,23.90
2022-07-27T11:38:02.993Z,23.87
2022-07-27T11:41:12.842Z,23.88
2022-07-27T11:43:38.672Z,23.90
2022-07-27T11:46:18.229Z,24.37
2022-07-27T11:49:06.499Z,24.24
2022-07-27T11:51:44.863Z,24.54
2022-07-27T11:54:22.376Z,24.99
2022-07-27T11:57:00.955Z,25.14
2022-07-27T11:59:32.239Z,25.80
2022-07-27T12:02:03.073Z,27.18
2022-07-27T12:04:51.407Z,27.81
2022-07-27T12:07:21.968Z,27.22
2022-07-27T12:09:54.725Z,26.39
2022-07-27T12:12:26.886Z,25.15
2022-07-27T12:14:57.263Z,24.78
2022-07-27T12:17:30.795Z,24.38
2022-07-27T12:19:58.569Z,24.99
2022-07-27T12:22:28.861Z,25.93
2022-07-27T12:24:56.477Z,26.09
2022-07-27T12:27:23.626Z,26.29
2022-07-27T12:30:01.293Z,26.41
2022-07-27T12:32:31.865Z,26.34
2022-07-27T12:34:58.962Z,26.09
2022-07-27T12:37:32.467Z,25.71
2022-07-27T12:39:59.975Z,24.60
2022-07-27T12:42:36.967Z,24.58
2022-07-27T12:45:20.229Z,23.85
2022-07-27T12:47:46.997Z,23.23
2022-07-27T12:50:26.788Z,23.56
2022-07-27T12:52:54.247Z,24.02
2022-07-27T12:55:22.610Z,24.17
2022-07-27T12:57:56.200Z,23.90
2022-07-27T13:00:32.719Z,24.10
2022-07-27T13:03:00.853Z,24.45
2022-07-27T13:05:27.707Z,25.01
2022-07-27T13:07:54.422Z,25.99
2022-07-27T13:10:21.271Z,26.87
2022-07-27T13:12:48.749Z,26.22
2022-07-27T13:15:16.859Z,24.80
2022-07-27T13:17:44.317Z,24.36
2022-07-27T13:20:12.683Z,23.91
2022-07-27T13:22:40.386Z,23.86
2022-07-27T13:25:16.187Z,24.47
2022-07-27T13:27:44.660Z,25.00
2022-07-27T13:30:12.242Z,24.89
2022-07-27T13:32:40.212Z,25.00
2022-07-27T13:35:08.461Z,23.99
2022-07-27T13:37:35.177Z,23.49
2022-07-27T13:40:01.850Z,23.89
2022-07-27T13:42:28.606Z,23.98
2022-07-27T13:45:08.669Z,23.65
2022-07-27T13:47:37.291Z,23.80
2022-07-27T13:50:04.830Z,23.61
2022-07-27T13:52:31.476Z,23.38
2022-07-27T13:54:58.229Z,23.74
2022-07-27T13:57:24.878Z,23.97
2022-07-27T13:59:51.664Z,24.17
2022-07-27T14:02:20.477Z,23.90
2022-07-27T14:04:51.893Z,23.66
2022-07-27T14:07:18.509Z,23.48
2022-07-27T14:10:03.594Z,23.59
2022-07-27T14:12:30.585Z,23.38
2022-07-27T14:14:57.373Z,23.39
2022-07-27T14:17:24.251Z,23.44
2022-07-27T14:19:51.007Z,23.29
2022-07-27T14:22:17.649Z,23.02
2022-07-27T14:24:44.385Z,22.81
2022-07-27T14:27:11.156Z,22.89
2022-07-27T14:29:37.908Z,23.00
2022-07-27T14:32:06.002Z,23.18
2022-07-27T14:34:32.653Z,23.25
2022-07-27T14:36:59.600Z,23.41
2022-07-27T14:39:26.185Z,23.55
2022-07-27T14:41:52.912Z,23.38
2022-07-27T14:44:19.658Z,23.04
2022-07-27T14:46:47.229Z,23.26
2022-07-27T14:49:17.361Z,23.57
2022-07-27T14:51:44.404Z,23.20
2022-07-27T14:54:11.196Z,23.31
2022-07-27T14:56:37.968Z,23.26
2022-07-27T14:59:04.844Z,23.27
2022-07-27T15:01:32.005Z,23.02
2022-07-27T15:03:58.942Z,22.78
2022-07-27T15:06:25.905Z,22.78
2022-07-27T15:08:52.978Z,22.55
2022-07-27T15:11:19.827Z,22.37
2022-07-27T15:13:46.702Z,22.46
2022-07-27T15:16:13.584Z,22.77
2022-07-27T15:18:41.976Z,22.85
2022-07-27T15:21:12.716Z,22.83
2022-07-27T15:23:39.873Z,22.89
2022-07-27T15:26:06.634Z,23.11
2022-07-27T15:28:33.409Z,22.91
2022-07-27T15:31:00.051Z,22.74
2022-07-27T15:33:26.894Z,22.79
2022-07-27T15:35:53.963Z,22.57
2022-07-27T15:38:20.704Z,22.44
2022-07-27T15:40:47.888Z,22.66
2022-07-27T15:43:17.071Z,22.69
2022-07-27T15:45:47.825Z,22.77
2022-07-27T15:48:16.567Z,22.59
2022-07-27T15:50:48.543Z,22.38
2022-07-27T15:53:16.556Z,22.49
2022-07-27T15:55:44.665Z,22.55
2022-07-27T15:58:12.273Z,22.46
2022-07-27T16:00:41.009Z,22.60
2022-07-27T16:03:12.060Z,22.72
2022-07-27T16:05:40.524Z,22.54
2022-07-27T16:08:09.746Z,22.33
2022-07-27T16:10:38.202Z,22.18
2022-07-27T16:13:05.752Z,22.14
2022-07-27T16:15:51.639Z,21.95
2022-07-27T16:18:18.419Z,21.82
2022-07-27T16:20:45.172Z,21.82
2022-07-27T16:23:17.696Z,22.04
2022-07-27T16:26:04.526Z,22.20
2022-07-27T16:28:34.253Z,21.92
2022-07-27T16:31:01.612Z,21.94
2022-07-27T16:33:28.295Z,21.91
2022-07-27T16:35:55.019Z,22.01
2022-07-27T16:38:21.745Z,21.74
2022-07-27T16:40:48.467Z,21.82
2022-07-27T16:43:15.177Z,21.90
2022-07-27T16:45:41.915Z,21.88
2022-07-27T16:48:08.998Z,21.79
2022-07-27T16:50:35.727Z,21.65
2022-07-27T16:53:02.558Z,21.77
2022-07-27T16:55:30.221Z,21.67
2022-07-27T16:57:57.131Z,21.63
2022-07-27T17:00:23.874Z,21.68
2022-07-27T17:02:50.740Z,21.69
2022-07-27T17:05:17.503Z,21.75
2022-07-27T17:07:44.251Z,21.82
2022-07-27T17:10:10.950Z,21.78
2022-07-27T17:12:39.201Z,21.71
2022-07-27T17:15:07.406Z,21.74
2022-07-27T17:17:34.722Z,21.62
2022-07-27T17:20:01.766Z,21.54
2022-07-27T17:22:28.557Z,21.31
2022-07-27T17:24:55.380Z,21.27
2022-07-27T17:27:22.231Z,21.21
2022-07-27T17:29:49.319Z,21.12
2022-07-27T17:32:16.209Z,21.03
2022-07-27T17:34:43.553Z,21.17
2022-07-27T17:37:10.294Z,21.15
2022-07-27T17:39:37.690Z,21.19
2022-07-27T17:42:04.474Z,21.16
2022-07-27T17:44:32.471Z,21.21
2022-07-27T17:47:01.236Z,20.98
2022-07-27T17:49:28.467Z,20.94
2022-07-27T17:51:55.482Z,20.83
2022-07-27T17:54:23.569Z,20.89
2022-07-27T17:56:50.399Z,20.82
2022-07-27T17:59:37.052Z,20.79
2022-07-27T18:02:05.020Z,20.71
2022-07-27T18:04:37.027Z,20.63
2022-07-27T18:07:05.972Z,20.54
2022-07-27T18:09:32.758Z,20.53
2022-07-27T18:11:59.673Z,20.47
2022-07-27T18:14:26.527Z,20.42
2022-07-27T18:16:53.570Z,20.31
2022-07-27T18:19:20.269Z,20.24
2022-07-27T18:21:46.816Z,20.25
2022-07-27T18:24:13.456Z,20.18
2022-07-27T18:26:40.273Z,20.15
2022-07-27T18:29:07.987Z,20.03
2022-07-27T18:31:34.940Z,20.03
2022-07-27T18:34:02.745Z,20.03
2022-07-27T18:36:29.830Z,19.98
2022-07-27T18:38:57.908Z,19.96
2022-07-27T18:41:25.080Z,19.92
2022-07-27T18:43:51.684Z,19.80
2022-07-27T18:46:20.447Z,19.74
2022-07-27T18:48:47.861Z,19.76
2022-07-27T18:51:15.693Z,19.61
2022-07-27T18:53:44.296Z,19.49
2022-07-27T18:56:11.100Z,19.44
2022-07-27T18:58:38.186Z,19.36
2022-07-27T19:01:05.103Z,19.31
2022-07-27T19:03:32.217Z,19.24
2022-07-27T19:05:59.052Z,19.21
2022-07-27T19:08:25.708Z,19.13
2022-07-27T19:10:52.554Z,19.09
2022-07-27T19:13:19.133Z,19.02
2022-07-27T19:15:45.918Z,18.97
2022-07-27T19:18:12.974Z,18.84
2022-07-27T19:20:39.970Z,18.68
2022-07-27T19:23:07.349Z,18.52
2022-07-27T19:25:34.687Z,18.17
2022-07-27T19:28:02.798Z,17.93
2022-07-27T19:30:29.871Z,17.66
2022-07-27T19:32:56.632Z,17.43
2022-07-27T19:35:23.593Z,17.27
2022-07-27T19:37:50.340Z,17.05
2022-07-27T19:40:43.368Z,16.98
2022-07-27T19:43:05.027Z,16.93
2022-07-27T19:45:31.746Z,16.87
2022-07-27T19:47:59.534Z,16.75
2022-07-27T19:50:26.200Z,16.57
2022-07-27T19:52:52.945Z,16.41
2022-07-27T19:55:19.555Z,16.44
2022-07-27T19:57:46.162Z,16.33
2022-07-27T20:00:13.715Z,16.36
2022-07-27T20:02:40.453Z,16.27
2022-07-27T20:05:07.922Z,16.20
2022-07-27T20:07:34.627Z,16.11
2022-07-27T20:10:01.365Z,15.96
2022-07-27T20:12:27.989Z,15.91
2022-07-27T20:14:54.610Z,15.89
2022-07-27T20:17:21.189Z,15.90
2022-07-27T20:19:47.790Z,15.94
2022-07-27T20:22:14.425Z,15.87
2022-07-27T20:24:41.142Z,15.74
2022-07-27T20:27:07.864Z,15.81
2022-07-27T20:29:34.664Z,15.41
2022-07-27T20:32:01.300Z,15.26
2022-07-27T20:34:28.033Z,15.18
2022-07-27T20:36:55.550Z,15.13
2022-07-27T20:39:24.021Z,15.13
2022-07-27T20:41:51.079Z,15.10
2022-07-27T20:44:17.676Z,15.13
2022-07-27T20:46:44.409Z,15.03
2022-07-27T20:49:11.428Z,14.98
2022-07-27T20:51:39.575Z,14.97
2022-07-27T20:54:06.445Z,14.80
2022-07-27T20:56:33.068Z,14.61
2022-07-27T20:58:59.879Z,14.38
2022-07-27T21:01:26.643Z,14.34
2022-07-27T21:03:53.418Z,14.37
2022-07-27T21:06:19.991Z,14.39
2022-07-27T21:08:47.073Z,14.45
2022-07-27T21:11:14.161Z,14.42
2022-07-27T21:13:41.726Z,14.43
2022-07-27T21:16:08.868Z,14.32
2022-07-27T21:18:35.957Z,14.24
2022-07-27T21:21:02.602Z,14.26
2022-07-27T21:23:47.978Z,14.28
2022-07-27T21:26:14.697Z,14.20
2022-07-27T21:28:44.700Z,14.23
2022-07-27T21:31:11.260Z,14.21
2022-07-27T21:33:39.900Z,14.12
2022-07-27T21:36:07.214Z,14.09
2022-07-27T21:38:34.054Z,14.09
2022-07-27T21:41:00.736Z,14.07
2022-07-27T21:43:27.355Z,14.00
2022-07-27T21:45:54.033Z,14.04
2022-07-27T21:48:20.766Z,13.90
2022-07-27T21:50:47.375Z,13.84
2022-07-27T21:53:14.065Z,13.74
2022-07-27T21:55:41.148Z,13.63
2022-07-27T21:58:10.146Z,13.71
2022-07-27T22:00:37.453Z,13.66
2022-07-27T22:03:04.496Z,13.72
2022-07-27T22:05:31.353Z,13.68
2022-07-27T22:08:00.101Z,13.78
2022-07-27T22:10:31.153Z,13.61
2022-07-27T22:12:58.648Z,13.63
2022-07-27T22:15:25.806Z,13.52
2022-07-27T22:17:52.785Z,13.52
2022-07-27T22:20:21.282Z,13.49
2022-07-27T22:22:49.176Z,13.41
2022-07-27T22:25:16.539Z,13.43
2022-07-27T22:27:43.099Z,13.42
2022-07-27T22:30:10.308Z,13.39
2022-07-27T22:32:37.005Z,13.30
2022-07-27T22:35:04.561Z,13.22
2022-07-27T22:37:31.057Z,13.13
2022-07-27T22:39:57.639Z,13.05
2022-07-27T22:42:24.236Z,13.05
2022-07-27T22:44:50.887Z,13.18
2022-07-27T22:47:17.502Z,13.18
2022-07-27T22:49:44.277Z,13.22
2022-07-27T22:52:10.927Z,13.19
2022-07-27T22:54:38.418Z,13.22
2022-07-27T22:57:06.609Z,13.15
2022-07-27T22:59:34.287Z,13.12
2022-07-27T23:02:01.963Z,13.07
2022-07-27T23:04:28.742Z,13.09
2022-07-27T23:06:55.762Z,13.12
2022-07-27T23:09:23.396Z,13.10
2022-07-27T23:11:51.367Z,13.13
2022-07-27T23:14:19.031Z,13.15
2022-07-27T23:16:46.014Z,13.01
2022-07-27T23:19:12.830Z,13.07
2022-07-27T23:21:42.012Z,13.13
2022-07-27T23:24:10.294Z,13.07
2022-07-27T23:26:38.030Z,12.99
2022-07-27T23:29:04.640Z,13.10
2022-07-27T23:31:31.480Z,13.32
2022-07-27T23:33:58.233Z,13.45
2022-07-27T23:36:24.873Z,13.49
2022-07-27T23:38:51.467Z,13.62
2022-07-27T23:41:18.053Z,13.65
2022-07-27T23:43:45.051Z,13.75
2022-07-27T23:46:11.726Z,13.80
2022-07-27T23:48:38.391Z,13.81
2022-07-27T23:51:05.013Z,13.84
2022-07-27T23:53:31.845Z,13.73
2022-07-27T23:55:58.733Z,13.81
2022-07-27T23:58:25.418Z,13.81
